createdAt,value
2018-08-13T00:00:17.644Z,70.97
2018-08-13T00:05:10.794Z,71.06
2018-08-13T00:10:05.295Z,71.05
2018-08-13T00:14:58.294Z,70.16
2018-08-13T00:19:51.331Z,69.95
2018-08-13T00:24:44.738Z,69.12
2018-08-13T00:29:37.759Z,68.64
2018-08-13T00:34:31.010Z,68.31
2018-08-13T00:39:24.283Z,68.22
2018-08-13T00:44:17.370Z,66.79
2018-08-13T00:49:10.509Z,66.36
2018-08-13T00:54:03.806Z,66.40
2018-08-13T00:58:57.165Z,64.57
2018-08-13T01:03:50.247Z,64.35
2018-08-13T01:08:43.322Z,65.18
2018-08-13T01:13:36.321Z,65.28
2018-08-13T01:18:29.739Z,65.16
2018-08-13T01:23:22.860Z,65.50
2018-08-13T01:28:15.913Z,66.29
2018-08-13T01:33:09.288Z,67.00
2018-08-13T01:38:02.372Z,67.28
2018-08-13T01:42:55.341Z,67.54
2018-08-13T01:47:48.627Z,67.65
2018-08-13T01:52:41.910Z,66.85
2018-08-13T01:57:35.394Z,66.85
2018-08-13T02:02:28.498Z,66.52
2018-08-13T02:07:26.460Z,68.32
2018-08-13T02:12:19.622Z,68.50
2018-08-13T02:17:12.666Z,69.08
2018-08-13T02:22:06.246Z,70.36
2018-08-13T02:26:59.473Z,70.52
2018-08-13T02:31:52.664Z,71.45
2018-08-13T02:36:45.717Z,71.69
2018-08-13T02:41:39.490Z,72.54
2018-08-13T02:46:33.279Z,72.99
2018-08-13T02:51:26.521Z,72.93
2018-08-13T02:56:19.525Z,73.23
2018-08-13T03:01:12.594Z,73.08
2018-08-13T03:06:06.262Z,72.48
2018-08-13T03:10:59.330Z,72.45
2018-08-13T03:15:52.452Z,72.38
2018-08-13T03:20:45.477Z,72.58
2018-08-13T03:25:38.519Z,72.16
2018-08-13T03:30:31.602Z,73.00
2018-08-13T03:35:24.743Z,72.98
2018-08-13T03:40:18.153Z,72.10
2018-08-13T03:45:12.470Z,72.36
2018-08-13T03:50:06.925Z,72.25
2018-08-13T03:55:00.506Z,72.09
2018-08-13T03:59:54.152Z,73.05
2018-08-13T04:04:47.332Z,72.34
2018-08-13T04:09:43.047Z,71.35
2018-08-13T04:14:36.064Z,71.14
2018-08-13T04:19:31.530Z,70.40
2018-08-13T04:24:25.036Z,70.18
2018-08-13T04:29:18.894Z,69.16
2018-08-13T04:34:12.235Z,68.89
2018-08-13T04:39:08.845Z,69.79
2018-08-13T04:44:01.849Z,69.56
2018-08-13T04:48:54.904Z,67.95
2018-08-13T04:53:48.173Z,67.87
2018-08-13T04:58:41.286Z,66.94
2018-08-13T05:03:35.121Z,67.10
2018-08-13T05:08:28.299Z,65.98
2018-08-13T05:13:21.943Z,65.52
2018-08-13T05:18:15.287Z,65.33
2018-08-13T05:23:08.472Z,65.26
2018-08-13T05:28:01.736Z,65.24
2018-08-13T05:32:54.964Z,64.03
2018-08-13T05:37:48.116Z,63.53
2018-08-13T05:42:41.273Z,63.35
2018-08-13T05:47:34.425Z,62.07
2018-08-13T05:52:27.493Z,62.09
2018-08-13T05:57:20.639Z,61.31
2018-08-13T06:02:13.941Z,60.33
2018-08-13T06:07:07.194Z,60.38
2018-08-13T06:12:00.470Z,59.99
2018-08-13T06:16:53.639Z,59.87
2018-08-13T06:21:47.166Z,59.79
2018-08-13T06:26:40.616Z,59.26
2018-08-13T06:31:33.770Z,59.23
2018-08-13T06:36:26.872Z,59.15
2018-08-13T06:41:19.990Z,58.42
2018-08-13T06:46:13.446Z,57.90
2018-08-13T06:51:06.542Z,57.88
2018-08-13T06:56:00.090Z,57.06
2018-08-13T07:00:53.268Z,56.88
2018-08-13T07:05:46.226Z,56.85
2018-08-13T07:10:39.793Z,54.89
2018-08-13T07:15:32.856Z,55.71
2018-08-13T07:20:26.663Z,54.39
2018-08-13T07:25:20.386Z,55.53
2018-08-13T07:30:15.010Z,56.07
2018-08-13T07:35:09.186Z,55.13
2018-08-13T07:40:02.711Z,55.77
2018-08-13T07:44:55.871Z,54.31
2018-08-13T07:49:49.119Z,54.31
2018-08-13T07:54:42.307Z,54.91
2018-08-13T07:59:35.392Z,54.17
2018-08-13T08:04:28.461Z,52.81
2018-08-13T08:09:22.191Z,53.55
2018-08-13T08:14:15.404Z,51.32
2018-08-13T08:19:08.809Z,51.91
2018-08-13T08:24:02.057Z,51.86
2018-08-13T08:28:55.141Z,52.19
2018-08-13T08:33:48.239Z,50.59
2018-08-13T08:38:42.461Z,51.63
2018-08-13T08:43:35.585Z,51.39
2018-08-13T08:48:29.127Z,52.09
2018-08-13T08:53:23.573Z,51.87
2018-08-13T08:58:16.576Z,50.77
2018-08-13T09:03:10.413Z,48.98
2018-08-13T09:08:03.768Z,50.02
2018-08-13T09:12:57.135Z,50.33
2018-08-13T09:18:01.450Z,49.46
2018-08-13T09:23:05.934Z,47.86
2018-08-13T09:28:10.085Z,45.31
2018-08-13T09:33:14.379Z,47.59
2018-08-13T09:38:08.107Z,45.85
2018-08-13T09:43:01.377Z,46.75
2018-08-13T09:47:54.809Z,45.60
2018-08-13T09:52:48.781Z,44.44
2018-08-13T09:57:42.810Z,45.82
2018-08-13T10:02:35.926Z,44.62
2018-08-13T10:07:29.718Z,41.99
2018-08-13T10:12:23.495Z,43.10
2018-08-13T10:17:16.543Z,42.85
2018-08-13T10:22:09.751Z,42.31
2018-08-13T10:27:04.318Z,42.52
2018-08-13T10:31:58.495Z,42.01
2018-08-13T10:36:51.920Z,43.09
2018-08-13T10:41:45.401Z,44.31
2018-08-13T10:46:38.867Z,42.95
2018-08-13T10:51:32.443Z,41.33
2018-08-13T10:56:25.481Z,40.69
2018-08-13T11:01:19.173Z,42.53
2018-08-13T11:06:14.775Z,42.04
2018-08-13T11:11:08.038Z,41.40
2018-08-13T11:16:01.447Z,41.25
2018-08-13T11:20:55.137Z,40.40
2018-08-13T11:25:51.858Z,40.29
2018-08-13T11:30:45.491Z,40.28
2018-08-13T11:35:39.060Z,38.88
2018-08-13T11:40:32.368Z,40.59
2018-08-13T11:45:25.567Z,39.46
2018-08-13T11:50:19.818Z,40.38
2018-08-13T11:55:12.872Z,40.62
2018-08-13T12:00:09.010Z,39.66
2018-08-13T12:05:02.105Z,39.21
2018-08-13T12:09:55.249Z,39.21
2018-08-13T12:14:48.291Z,39.43
2018-08-13T12:19:44.847Z,38.72
2018-08-13T12:24:39.135Z,37.80
2018-08-13T12:29:32.397Z,38.20
2018-08-13T12:34:25.522Z,39.41
2018-08-13T12:39:19.254Z,39.32
2018-08-13T12:44:12.337Z,39.28
2018-08-13T12:49:05.999Z,38.28
2018-08-13T12:53:59.126Z,38.18
2018-08-13T12:58:53.451Z,38.39
2018-08-13T13:03:46.563Z,38.97
2018-08-13T13:08:39.601Z,38.45
2018-08-13T13:13:32.772Z,38.20
2018-08-13T13:18:26.081Z,38.45
2018-08-13T13:23:19.145Z,38.14
2018-08-13T13:28:12.354Z,34.33
2018-08-13T13:33:05.525Z,32.23
2018-08-13T13:37:58.570Z,31.32
2018-08-13T13:42:51.637Z,30.93
2018-08-13T13:47:44.798Z,31.38
2018-08-13T13:52:37.846Z,31.87
2018-08-13T13:57:31.303Z,30.49
2018-08-13T14:02:24.438Z,32.62
2018-08-13T14:07:18.142Z,35.04
2018-08-13T14:12:11.139Z,37.56
2018-08-13T14:17:05.311Z,37.19
2018-08-13T14:21:58.632Z,37.34
2018-08-13T14:26:51.784Z,36.47
2018-08-13T14:31:44.893Z,37.83
2018-08-13T14:36:38.062Z,36.19
2018-08-13T14:41:32.328Z,34.18
2018-08-13T14:46:25.444Z,31.96
2018-08-13T14:51:18.705Z,31.42
2018-08-13T14:56:12.033Z,31.04
2018-08-13T15:01:06.483Z,32.14
2018-08-13T15:05:59.649Z,31.44
2018-08-13T15:10:52.662Z,31.81
2018-08-13T15:15:46.335Z,32.17
2018-08-13T15:20:39.854Z,32.46
2018-08-13T15:25:34.201Z,32.58
2018-08-13T15:30:27.893Z,32.73
2018-08-13T15:35:21.233Z,32.75
2018-08-13T15:40:14.766Z,32.82
2018-08-13T15:45:14.336Z,34.00
2018-08-13T15:50:07.925Z,33.37
2018-08-13T15:55:01.154Z,34.27
2018-08-13T15:59:54.218Z,35.17
2018-08-13T16:04:48.255Z,35.42
2018-08-13T16:09:41.436Z,34.84
2018-08-13T16:14:34.692Z,35.24
2018-08-13T16:19:27.776Z,36.22
2018-08-13T16:24:21.093Z,36.73
2018-08-13T16:29:14.056Z,36.34
2018-08-13T16:34:07.644Z,35.65
2018-08-13T16:39:00.672Z,34.55
2018-08-13T16:43:53.749Z,35.39
2018-08-13T16:48:47.796Z,35.25
2018-08-13T16:53:41.268Z,35.25
2018-08-13T16:58:34.548Z,35.30
2018-08-13T17:03:27.696Z,35.68
2018-08-13T17:08:21.173Z,35.55
2018-08-13T17:13:14.458Z,36.70
2018-08-13T17:18:07.865Z,37.51
2018-08-13T17:23:01.167Z,36.50
2018-08-13T17:27:54.875Z,35.67
2018-08-13T17:32:49.435Z,36.17
2018-08-13T17:37:42.475Z,37.52
2018-08-13T17:42:39.459Z,37.42
2018-08-13T17:47:32.882Z,37.59
2018-08-13T17:52:26.084Z,38.16
2018-08-13T17:57:19.218Z,37.79
2018-08-13T18:02:12.364Z,38.00
2018-08-13T18:07:06.119Z,37.71
2018-08-13T18:11:59.400Z,37.82
2018-08-13T18:16:52.480Z,37.40
2018-08-13T18:21:46.039Z,38.01
2018-08-13T18:26:39.305Z,37.66
2018-08-13T18:31:32.360Z,39.66
2018-08-13T18:36:25.447Z,40.39
2018-08-13T18:41:19.099Z,41.68
2018-08-13T18:46:12.324Z,43.10
2018-08-13T18:51:05.521Z,44.05
2018-08-13T18:55:58.843Z,45.83
2018-08-13T19:00:53.729Z,46.88
2018-08-13T19:05:48.588Z,48.10
2018-08-13T19:10:43.813Z,48.29
2018-08-13T19:15:40.018Z,49.94
2018-08-13T19:20:35.090Z,50.28
2018-08-13T19:25:29.926Z,51.00
2018-08-13T19:30:25.460Z,51.36
2018-08-13T19:35:18.497Z,51.52
2018-08-13T19:40:15.261Z,52.54
2018-08-13T19:45:10.382Z,53.12
2018-08-13T19:50:04.344Z,53.92
2018-08-13T19:54:57.392Z,53.86
2018-08-13T19:59:50.414Z,54.13
2018-08-13T20:04:43.712Z,54.46
2018-08-13T20:09:36.862Z,54.46
2018-08-13T20:14:31.056Z,55.31
2018-08-13T20:19:26.894Z,55.27
2018-08-13T20:24:20.739Z,56.02
2018-08-13T20:29:15.252Z,56.08
2018-08-13T20:34:11.465Z,55.93
2018-08-13T20:39:08.782Z,56.32
2018-08-13T20:44:01.840Z,57.05
2018-08-13T20:48:55.059Z,57.58
2018-08-13T20:53:48.590Z,58.16
2018-08-13T20:58:42.715Z,57.59
2018-08-13T21:03:36.388Z,57.52
2018-08-13T21:08:30.775Z,57.95
2018-08-13T21:13:23.823Z,57.70
2018-08-13T21:18:16.978Z,58.71
2018-08-13T21:23:10.270Z,58.61
2018-08-13T21:28:03.578Z,59.45
2018-08-13T21:32:56.884Z,59.47
2018-08-13T21:37:50.347Z,59.00
2018-08-13T21:42:43.834Z,58.43
2018-08-13T21:47:37.435Z,58.92
2018-08-13T21:52:30.467Z,58.75
2018-08-13T21:57:24.970Z,58.78
2018-08-13T22:02:18.090Z,58.08
2018-08-13T22:07:11.635Z,58.05
2018-08-13T22:12:09.795Z,57.92
2018-08-13T22:17:02.988Z,58.43
2018-08-13T22:21:56.224Z,58.81
2018-08-13T22:26:49.887Z,58.65
2018-08-13T22:31:43.157Z,58.16
2018-08-13T22:36:36.204Z,58.93
2018-08-13T22:41:29.340Z,59.94
2018-08-13T22:46:22.368Z,59.16
2018-08-13T22:51:15.415Z,58.40
2018-08-13T22:56:08.570Z,58.80
2018-08-13T23:01:01.633Z,58.05
2018-08-13T23:05:55.087Z,58.41
2018-08-13T23:10:48.268Z,60.23
2018-08-13T23:15:41.254Z,61.65
2018-08-13T23:20:34.268Z,60.51
2018-08-13T23:25:28.157Z,59.49
2018-08-13T23:30:21.981Z,60.50
2018-08-13T23:35:15.855Z,59.88
2018-08-13T23:40:09.564Z,59.73
2018-08-13T23:45:02.649Z,61.14
2018-08-13T23:49:55.654Z,60.64
2018-08-13T23:54:48.857Z,60.70
2018-08-13T23:59:41.884Z,60.24
